createdAt,value
2018-07-14T00:00:40.894Z,10.13
2018-07-14T00:03:09.520Z,9.80
2018-07-14T00:05:38.116Z,10.07
2018-07-14T00:08:06.752Z,11.87
2018-07-14T00:10:35.395Z,9.80
2018-07-14T00:13:04.034Z,8.97
2018-07-14T00:15:32.649Z,9.47
2018-07-14T00:18:01.249Z,10.40
2018-07-14T00:20:29.873Z,9.70
2018-07-14T00:22:58.498Z,9.43
2018-07-14T00:25:32.447Z,9.97
2018-07-14T00:28:01.093Z,10.80
2018-07-14T00:30:29.720Z,8.60
2018-07-14T00:32:58.382Z,9.30
2018-07-14T00:35:27.030Z,12.67
2018-07-14T00:37:55.637Z,10.43
2018-07-14T00:40:24.260Z,14.93
2018-07-14T00:42:52.924Z,11.10
2018-07-14T00:45:21.631Z,12.70
2018-07-14T00:47:50.293Z,14.20
2018-07-14T00:50:18.917Z,11.20
2018-07-14T00:52:47.578Z,11.40
2018-07-14T00:55:16.191Z,11.00
2018-07-14T00:57:44.797Z,10.80
2018-07-14T01:00:13.393Z,11.07
2018-07-14T01:02:42.101Z,11.20
2018-07-14T01:05:10.711Z,10.67
2018-07-14T01:07:39.333Z,10.90
2018-07-14T01:10:07.948Z,14.13
2018-07-14T01:12:36.636Z,10.80
2018-07-14T01:15:05.379Z,11.20
2018-07-14T01:17:34.057Z,11.70
2018-07-14T01:20:02.744Z,10.87
2018-07-14T01:22:31.434Z,11.40
2018-07-14T01:25:00.075Z,10.87
2018-07-14T01:27:28.717Z,10.83
2018-07-14T01:29:57.350Z,11.93
2018-07-14T01:32:26.037Z,12.33
2018-07-14T01:34:54.666Z,11.80
2018-07-14T01:37:23.319Z,12.33
2018-07-14T01:39:51.956Z,13.67
2018-07-14T01:42:20.613Z,13.40
2018-07-14T01:44:49.242Z,11.13
2018-07-14T01:47:17.911Z,12.67
2018-07-14T01:49:46.566Z,12.80
2018-07-14T01:52:15.199Z,12.27
2018-07-14T01:54:43.838Z,12.40
2018-07-14T01:57:12.489Z,11.30
2018-07-14T01:59:41.153Z,10.77
2018-07-14T02:02:09.901Z,11.50
2018-07-14T02:04:38.533Z,12.03
2018-07-14T02:07:07.290Z,10.60
2018-07-14T02:09:35.914Z,11.57
2018-07-14T02:12:04.227Z,11.30
2018-07-14T02:14:32.853Z,10.10
2018-07-14T02:17:01.486Z,11.33
2018-07-14T02:19:30.113Z,11.57
2018-07-14T02:21:58.818Z,10.83
2018-07-14T02:24:27.440Z,11.10
2018-07-14T02:26:56.075Z,12.40
2018-07-14T02:29:24.668Z,12.33
2018-07-14T02:31:53.286Z,14.63
2018-07-14T02:34:21.910Z,13.37
2018-07-14T02:36:50.660Z,13.33
2018-07-14T02:39:19.338Z,14.27
2018-07-14T02:41:47.942Z,14.00
2018-07-14T02:44:16.584Z,13.00
2018-07-14T02:46:45.223Z,13.93
2018-07-14T02:49:13.849Z,13.50
2018-07-14T02:51:42.450Z,15.40
2018-07-14T02:54:11.146Z,15.00
2018-07-14T02:56:39.772Z,13.87
2018-07-14T02:59:08.411Z,16.63
2018-07-14T03:01:37.021Z,14.00
2018-07-14T03:04:05.757Z,15.03
2018-07-14T03:06:34.332Z,15.83
2018-07-14T03:09:02.998Z,14.57
2018-07-14T03:11:31.598Z,14.83
2018-07-14T03:14:00.280Z,14.57
2018-07-14T03:16:28.914Z,15.40
2018-07-14T03:18:57.540Z,15.40
2018-07-14T03:21:26.149Z,15.07
2018-07-14T03:23:54.811Z,13.70
2018-07-14T03:26:23.523Z,14.47
2018-07-14T03:28:52.162Z,15.40
2018-07-14T03:31:20.839Z,14.77
2018-07-14T03:33:49.469Z,14.90
2018-07-14T03:36:18.110Z,14.30
2018-07-14T03:38:46.766Z,14.30
2018-07-14T03:41:15.372Z,14.27
2018-07-14T03:43:43.992Z,15.03
2018-07-14T03:46:12.645Z,16.20
2018-07-14T03:48:41.264Z,15.87
2018-07-14T03:51:09.917Z,16.40
2018-07-14T03:53:38.666Z,14.30
2018-07-14T03:56:07.315Z,14.50
2018-07-14T03:58:35.957Z,15.40
2018-07-14T04:01:04.599Z,14.33
2018-07-14T04:03:33.238Z,15.83
2018-07-14T04:06:01.859Z,14.83
2018-07-14T04:08:30.517Z,17.70
2018-07-14T04:10:59.108Z,14.90
2018-07-14T04:13:27.765Z,15.53
2018-07-14T04:15:56.373Z,15.70
2018-07-14T04:18:25.017Z,16.47
2018-07-14T04:20:53.626Z,15.20
2018-07-14T04:23:22.293Z,16.20
2018-07-14T04:25:50.921Z,13.80
2018-07-14T04:28:19.586Z,15.33
2018-07-14T04:30:48.238Z,13.73
2018-07-14T04:33:16.916Z,16.97
2018-07-14T04:35:45.553Z,14.00
2018-07-14T04:38:14.206Z,12.67
2018-07-14T04:40:42.828Z,14.10
2018-07-14T04:43:11.469Z,13.53
2018-07-14T04:45:40.110Z,13.70
2018-07-14T04:48:08.769Z,13.60
2018-07-14T04:50:37.396Z,12.30
2018-07-14T04:53:06.062Z,15.80
2018-07-14T04:55:34.700Z,15.30
2018-07-14T04:58:03.413Z,13.47
2018-07-14T05:00:32.053Z,13.50
2018-07-14T05:03:00.704Z,13.53
2018-07-14T05:05:29.338Z,17.20
2018-07-14T05:07:57.990Z,15.77
2018-07-14T05:10:26.597Z,11.87
2018-07-14T05:12:55.228Z,12.50
2018-07-14T05:15:23.906Z,12.33
2018-07-14T05:17:52.510Z,15.37
2018-07-14T05:20:21.153Z,13.50
2018-07-14T05:22:49.797Z,14.07
2018-07-14T05:25:18.502Z,12.60
2018-07-14T05:27:47.113Z,11.73
2018-07-14T05:30:15.827Z,11.73
2018-07-14T05:32:44.468Z,11.33
2018-07-14T05:35:13.118Z,11.80
2018-07-14T05:37:41.742Z,9.97
2018-07-14T05:40:10.449Z,12.23
2018-07-14T05:42:39.079Z,14.10
2018-07-14T05:45:07.805Z,14.27
2018-07-14T05:47:36.435Z,16.63
2018-07-14T05:50:05.390Z,14.37
2018-07-14T05:52:34.017Z,13.67
2018-07-14T05:55:02.676Z,13.10
2018-07-14T05:57:31.282Z,12.83
2018-07-14T05:59:59.908Z,13.40
2018-07-14T06:02:28.673Z,15.03
2018-07-14T06:04:57.357Z,12.47
2018-07-14T06:07:26.045Z,10.50
2018-07-14T06:09:54.658Z,11.07
2018-07-14T06:12:23.277Z,10.20
2018-07-14T06:14:51.957Z,10.93
2018-07-14T06:17:20.639Z,9.87
2018-07-14T06:19:49.242Z,9.10
2018-07-14T06:22:17.901Z,12.03
2018-07-14T06:24:46.596Z,10.00
2018-07-14T06:27:15.253Z,10.87
2018-07-14T06:29:43.890Z,10.60
2018-07-14T06:32:12.516Z,9.70
2018-07-14T06:54:36.229Z,9.73
2018-07-14T06:57:04.950Z,12.43
2018-07-14T06:59:33.653Z,9.87
2018-07-14T07:02:02.267Z,9.97
2018-07-14T07:04:30.893Z,10.30
2018-07-14T07:07:00.141Z,10.73
2018-07-14T07:09:28.776Z,9.47
2018-07-14T07:11:57.385Z,10.50
2018-07-14T07:14:26.050Z,10.77
2018-07-14T07:16:54.674Z,10.20
2018-07-14T07:19:23.314Z,10.10
2018-07-14T07:21:53.314Z,8.73
2018-07-14T07:24:21.990Z,10.83
2018-07-14T07:26:50.606Z,9.93
2018-07-14T07:29:19.289Z,8.23
2018-07-14T07:31:47.915Z,9.37
2018-07-14T07:34:16.617Z,11.90
2018-07-14T07:36:45.305Z,10.03
2018-07-14T07:39:14.144Z,10.57
2018-07-14T07:41:42.742Z,12.70
2018-07-14T07:44:11.373Z,9.77
2018-07-14T07:46:39.972Z,14.00
2018-07-14T07:49:08.602Z,8.70
2018-07-14T07:51:37.214Z,11.20
2018-07-14T07:54:06.015Z,7.63
2018-07-14T07:56:34.647Z,9.83
2018-07-14T07:59:03.307Z,8.50
2018-07-14T08:01:31.939Z,9.00
2018-07-14T08:04:00.541Z,9.10
2018-07-14T08:06:29.217Z,8.53
2018-07-14T08:08:57.784Z,12.03
2018-07-14T08:11:26.412Z,11.20
2018-07-14T08:13:54.992Z,8.90
2018-07-14T08:16:23.740Z,8.63
2018-07-14T08:18:52.361Z,8.67
2018-07-14T08:21:21.025Z,8.57
2018-07-14T08:23:49.661Z,9.00
2018-07-14T08:26:18.335Z,7.37
2018-07-14T08:28:46.957Z,9.53
2018-07-14T08:31:16.222Z,8.80
2018-07-14T08:33:44.876Z,8.23
2018-07-14T08:36:13.486Z,7.67
2018-07-14T08:38:42.221Z,9.00
2018-07-14T08:41:11.168Z,11.57
2018-07-14T08:43:39.859Z,7.00
2018-07-14T08:46:10.554Z,6.67
2018-07-14T08:48:39.210Z,7.50
2018-07-14T08:51:07.920Z,6.83
2018-07-14T08:53:36.789Z,7.60
2018-07-14T08:56:05.601Z,8.10
2018-07-14T08:58:34.194Z,6.97
2018-07-14T09:01:02.823Z,7.40
2018-07-14T09:03:31.458Z,6.93
2018-07-14T09:06:00.097Z,7.10
2018-07-14T09:08:28.697Z,7.17
2018-07-14T09:10:57.364Z,6.80
2018-07-14T09:13:26.408Z,7.13
2018-07-14T09:15:55.081Z,8.10
2018-07-14T09:18:25.025Z,6.87
2018-07-14T09:20:55.294Z,7.23
2018-07-14T09:23:24.079Z,7.37
2018-07-14T09:25:52.699Z,7.10
2018-07-14T09:28:21.281Z,7.20
2018-07-14T09:30:50.096Z,8.30
2018-07-14T09:33:18.726Z,7.13
2018-07-14T09:35:47.359Z,8.67
2018-07-14T09:38:15.565Z,7.07
2018-07-14T09:40:44.166Z,6.87
2018-07-14T09:43:12.731Z,6.80
2018-07-14T09:45:41.345Z,10.93
2018-07-14T09:48:09.969Z,7.63
2018-07-14T09:50:38.266Z,7.03
2018-07-14T09:53:06.996Z,6.33
2018-07-14T09:55:35.687Z,8.63
2018-07-14T09:58:04.304Z,8.27
2018-07-14T10:00:34.227Z,6.33
2018-07-14T10:03:03.898Z,8.50
2018-07-14T10:05:32.569Z,7.30
2018-07-14T10:08:01.191Z,7.23
2018-07-14T10:10:29.815Z,7.10
2018-07-14T10:12:58.469Z,6.70
2018-07-14T10:15:27.227Z,7.60
2018-07-14T10:17:55.828Z,8.00
2018-07-14T10:20:24.474Z,6.90
2018-07-14T10:22:53.070Z,6.13
2018-07-14T10:25:21.906Z,10.03
2018-07-14T10:27:50.390Z,7.30
2018-07-14T10:30:19.049Z,6.27
2018-07-14T10:32:47.942Z,5.90
2018-07-14T10:35:16.622Z,6.73
2018-07-14T10:37:45.359Z,9.50
2018-07-14T10:40:14.048Z,7.40
2018-07-14T10:42:42.713Z,7.17
2018-07-14T10:45:11.353Z,5.80
2018-07-14T10:47:39.990Z,8.27
2018-07-14T10:50:08.609Z,7.27
2018-07-14T10:52:37.263Z,7.50
2018-07-14T10:55:06.124Z,7.13
2018-07-14T10:57:34.761Z,6.83
2018-07-14T11:00:03.368Z,7.07
2018-07-14T11:02:32.000Z,7.80
2018-07-14T11:05:00.617Z,9.53
2018-07-14T11:07:29.298Z,9.50
2018-07-14T11:09:57.862Z,7.43
2018-07-14T11:12:26.538Z,7.50
2018-07-14T11:14:55.118Z,6.43
2018-07-14T11:17:23.741Z,7.37
2018-07-14T11:19:52.453Z,7.37
2018-07-14T11:22:21.056Z,9.43
2018-07-14T11:24:49.634Z,7.57
2018-07-14T11:27:18.241Z,7.53
2018-07-14T11:29:46.781Z,7.53
2018-07-14T11:32:15.353Z,7.63
2018-07-14T11:34:43.983Z,7.60
2018-07-14T11:37:13.104Z,8.10
2018-07-14T11:39:41.778Z,6.63
2018-07-14T11:42:10.507Z,7.40
2018-07-14T11:44:39.125Z,7.53
2018-07-14T11:47:07.790Z,7.67
2018-07-14T11:49:36.370Z,6.77
2018-07-14T11:52:05.025Z,7.53
2018-07-14T11:54:33.753Z,7.83
2018-07-14T11:57:02.401Z,7.37
2018-07-14T11:59:30.964Z,7.53
2018-07-14T12:01:59.255Z,6.93
2018-07-14T12:04:27.855Z,7.97
2018-07-14T12:06:56.509Z,7.47
2018-07-14T12:09:25.110Z,6.67
2018-07-14T12:11:53.766Z,8.23
2018-07-14T12:14:22.438Z,6.90
2018-07-14T12:16:51.089Z,8.40
2018-07-14T12:19:19.825Z,8.13
2018-07-14T12:21:48.464Z,7.80
2018-07-14T12:24:17.089Z,7.73
2018-07-14T12:26:45.938Z,8.47
2018-07-14T12:29:14.562Z,6.87
2018-07-14T12:31:43.213Z,8.47
2018-07-14T12:34:11.857Z,7.80
2018-07-14T12:36:40.552Z,8.57
2018-07-14T12:39:09.141Z,8.43
2018-07-14T12:41:37.763Z,7.53
2018-07-14T12:44:06.433Z,6.83
2018-07-14T12:46:35.082Z,7.97
2018-07-14T12:49:03.713Z,7.33
2018-07-14T12:51:32.448Z,7.63
2018-07-14T12:54:00.702Z,7.10
2018-07-14T12:56:29.365Z,7.20
2018-07-14T12:58:57.973Z,7.50
2018-07-14T13:01:26.650Z,9.40
2018-07-14T13:03:55.308Z,9.43
2018-07-14T13:06:23.963Z,13.83
2018-07-14T13:08:52.626Z,7.33
2018-07-14T13:11:21.303Z,7.07
2018-07-14T13:13:50.279Z,7.87
2018-07-14T13:16:18.980Z,8.10
2018-07-14T13:18:47.662Z,7.20
2018-07-14T13:21:16.313Z,7.90
2018-07-14T13:23:45.094Z,7.17
2018-07-14T13:26:13.776Z,8.53
2018-07-14T13:28:42.437Z,7.43
2018-07-14T13:31:11.088Z,6.80
2018-07-14T13:33:39.890Z,7.07
2018-07-14T13:36:08.546Z,6.87
2018-07-14T13:38:37.207Z,7.17
2018-07-14T13:41:05.831Z,7.27
2018-07-14T13:43:34.469Z,8.27
2018-07-14T13:46:03.153Z,11.30
2018-07-14T13:48:31.871Z,7.27
2018-07-14T13:51:00.606Z,7.23
2018-07-14T13:53:29.225Z,8.30
2018-07-14T13:55:57.898Z,7.60
2018-07-14T13:58:26.601Z,8.00
2018-07-14T14:00:55.246Z,7.20
2018-07-14T14:03:23.870Z,7.80
2018-07-14T14:05:52.464Z,6.00
2018-07-14T14:08:21.207Z,7.77
2018-07-14T14:10:49.823Z,7.20
2018-07-14T14:13:18.433Z,7.07
2018-07-14T14:15:47.078Z,7.00
2018-07-14T14:18:15.765Z,6.70
2018-07-14T14:20:44.511Z,7.60
2018-07-14T14:23:13.149Z,8.40
2018-07-14T14:25:41.764Z,7.17
2018-07-14T14:28:10.409Z,7.40
2018-07-14T14:30:39.034Z,5.77
2018-07-14T14:33:07.733Z,6.23
2018-07-14T14:35:36.389Z,7.40
2018-07-14T14:38:05.038Z,7.10
2018-07-14T14:40:33.698Z,8.77
2018-07-14T14:43:02.384Z,7.57
2018-07-14T14:45:31.014Z,7.80
2018-07-14T14:47:59.765Z,7.50
2018-07-14T14:50:28.399Z,7.20
2018-07-14T14:52:57.037Z,7.73
2018-07-14T14:55:25.652Z,7.53
2018-07-14T14:57:54.310Z,7.60
2018-07-14T15:00:22.929Z,7.73
2018-07-14T15:02:51.561Z,7.23
2018-07-14T15:05:20.193Z,8.90
2018-07-14T15:07:48.856Z,7.43
2018-07-14T15:10:17.464Z,7.03
2018-07-14T15:12:46.098Z,7.57
2018-07-14T15:15:14.730Z,7.50
2018-07-14T15:17:43.368Z,9.13
2018-07-14T15:20:11.995Z,7.87
2018-07-14T15:22:40.626Z,7.17
2018-07-14T15:25:09.274Z,7.57
2018-07-14T15:27:37.926Z,7.33
2018-07-14T15:30:07.737Z,6.43
2018-07-14T15:32:36.457Z,7.00
2018-07-14T15:35:05.097Z,7.80
2018-07-14T15:37:33.769Z,7.70
2018-07-14T15:40:02.618Z,7.07
2018-07-14T15:42:31.298Z,7.87
2018-07-14T15:44:59.907Z,8.33
2018-07-14T15:47:28.613Z,8.57
2018-07-14T15:49:57.273Z,7.43
2018-07-14T15:52:25.864Z,7.53
2018-07-14T15:54:54.502Z,6.80
2018-07-14T15:57:23.202Z,7.43
2018-07-14T15:59:51.842Z,8.53
2018-07-14T16:02:20.487Z,7.37
2018-07-14T16:04:49.114Z,7.27
2018-07-14T16:07:17.817Z,7.40
2018-07-14T16:09:46.666Z,7.07
2018-07-14T16:12:15.288Z,8.13
2018-07-14T16:14:43.969Z,7.47
2018-07-14T16:17:12.562Z,9.23
2018-07-14T16:19:41.189Z,6.00
2018-07-14T16:22:09.935Z,8.23
2018-07-14T16:24:38.937Z,6.37
2018-07-14T16:27:07.489Z,6.03
2018-07-14T16:29:36.253Z,7.23
2018-07-14T16:32:04.875Z,7.60
2018-07-14T16:34:33.516Z,8.20
2018-07-14T16:37:02.247Z,9.23
2018-07-14T16:39:30.913Z,7.63
2018-07-14T16:41:59.580Z,10.47
2018-07-14T16:44:28.243Z,8.90
2018-07-14T16:46:56.871Z,7.63
2018-07-14T16:49:25.521Z,9.03
2018-07-14T16:51:54.150Z,8.00
2018-07-14T16:54:22.790Z,8.43
2018-07-14T16:56:51.927Z,9.27
2018-07-14T16:59:20.619Z,9.50
2018-07-14T17:01:49.284Z,7.83
2018-07-14T17:04:17.973Z,7.40
2018-07-14T17:06:46.589Z,8.47
2018-07-14T17:09:15.245Z,8.43
2018-07-14T17:11:43.815Z,6.23
2018-07-14T17:14:12.599Z,7.67
2018-07-14T17:16:41.171Z,8.40
2018-07-14T17:19:09.855Z,7.17
2018-07-14T17:21:38.400Z,7.37
2018-07-14T17:24:07.038Z,7.33
2018-07-14T17:26:35.760Z,6.53
2018-07-14T17:29:04.352Z,7.93
2018-07-14T17:31:32.949Z,7.43
2018-07-14T17:34:01.606Z,6.90
2018-07-14T17:36:30.208Z,6.13
2018-07-14T17:38:58.783Z,6.90
2018-07-14T17:41:27.361Z,7.57
2018-07-14T17:43:55.991Z,6.60
2018-07-14T17:46:24.732Z,6.50
2018-07-14T17:48:53.360Z,7.00
2018-07-14T17:51:21.984Z,6.80
2018-07-14T17:53:50.602Z,6.73
2018-07-14T17:56:19.194Z,6.60
2018-07-14T17:58:47.977Z,6.73
2018-07-14T18:01:16.624Z,6.60
2018-07-14T18:03:45.237Z,7.13
2018-07-14T18:06:13.895Z,7.70
2018-07-14T18:08:42.559Z,9.93
2018-07-14T18:11:11.146Z,7.70
2018-07-14T18:13:39.778Z,6.90
2018-07-14T18:16:08.413Z,7.50
2018-07-14T18:18:37.051Z,10.63
2018-07-14T18:21:05.869Z,10.07
2018-07-14T18:23:34.567Z,12.23
2018-07-14T18:26:03.170Z,8.70
2018-07-14T18:28:31.427Z,9.07
2018-07-14T18:31:00.082Z,10.37
2018-07-14T18:33:28.821Z,8.90
2018-07-14T18:35:57.481Z,7.80
2018-07-14T18:38:26.264Z,10.73
2018-07-14T18:40:55.095Z,9.00
2018-07-14T18:43:23.722Z,9.37
2018-07-14T18:45:52.377Z,9.97
2018-07-14T18:48:20.957Z,8.03
2018-07-14T18:50:49.589Z,9.23
2018-07-14T18:53:18.216Z,9.13
2018-07-14T18:55:46.872Z,8.97
2018-07-14T18:58:15.518Z,11.07
2018-07-14T19:00:44.195Z,9.83
2018-07-14T19:03:12.796Z,7.80
2018-07-14T19:05:41.487Z,10.40
2018-07-14T19:08:10.136Z,9.23
2018-07-14T19:10:38.788Z,9.87
2018-07-14T19:13:07.922Z,8.77
2018-07-14T19:15:36.646Z,10.30
2018-07-14T19:18:05.296Z,12.73
2018-07-14T19:20:33.949Z,10.60
2018-07-14T19:23:02.582Z,9.97
2018-07-14T19:25:31.229Z,11.70
2018-07-14T19:27:59.953Z,9.80
2018-07-14T19:30:28.586Z,11.23
2018-07-14T19:32:57.225Z,8.70
2018-07-14T19:35:25.886Z,10.67
2018-07-14T19:37:54.533Z,10.90
2018-07-14T19:40:23.134Z,9.43
2018-07-14T19:42:51.790Z,13.00
2018-07-14T19:45:20.360Z,9.70
2018-07-14T19:47:49.084Z,9.13
2018-07-14T19:50:17.737Z,11.63
2018-07-14T19:52:46.351Z,9.23
2018-07-14T19:55:15.025Z,8.07
2018-07-14T19:57:43.620Z,11.27
2018-07-14T20:00:12.376Z,8.80
2018-07-14T20:02:41.214Z,11.47
2018-07-14T20:05:09.905Z,10.90
2018-07-14T20:07:38.560Z,8.90
2018-07-14T20:10:07.262Z,9.73
2018-07-14T20:12:35.956Z,8.77
2018-07-14T20:15:04.762Z,12.67
2018-07-14T20:17:33.364Z,7.90
2018-07-14T20:20:02.027Z,8.83
2018-07-14T20:22:31.641Z,8.77
2018-07-14T20:25:00.314Z,9.60
2018-07-14T20:27:28.973Z,9.57
2018-07-14T20:29:57.650Z,10.07
2018-07-14T20:32:26.378Z,10.10
2018-07-14T20:34:55.050Z,10.13
2018-07-14T20:37:23.779Z,9.83
2018-07-14T20:39:52.718Z,9.07
2018-07-14T20:42:21.644Z,9.97
2018-07-14T20:44:54.467Z,9.20
2018-07-14T20:47:23.063Z,13.73
2018-07-14T20:49:52.182Z,16.03
2018-07-14T20:52:21.561Z,9.53
2018-07-14T20:54:50.255Z,10.80
2018-07-14T20:57:18.977Z,10.27
2018-07-14T20:59:47.656Z,11.77
2018-07-14T21:02:16.281Z,9.60
2018-07-14T21:04:44.944Z,9.63
2018-07-14T21:07:13.785Z,12.63
2018-07-14T21:09:42.380Z,10.40
2018-07-14T21:12:11.128Z,10.60
2018-07-14T21:14:39.721Z,12.13
2018-07-14T21:17:08.463Z,10.63
2018-07-14T21:19:37.081Z,11.93
2018-07-14T21:22:05.770Z,10.00
2018-07-14T21:24:34.387Z,10.13
2018-07-14T21:27:03.140Z,11.67
2018-07-14T21:29:31.770Z,9.57
2018-07-14T21:32:00.477Z,11.33
2018-07-14T21:34:29.174Z,14.30
2018-07-14T21:36:57.925Z,11.03
2018-07-14T21:39:26.607Z,10.13
2018-07-14T21:41:55.241Z,9.80
2018-07-14T21:44:23.844Z,10.80
2018-07-14T21:46:52.483Z,11.03
2018-07-14T21:49:21.074Z,10.20
2018-07-14T21:51:49.713Z,9.40
2018-07-14T21:54:18.345Z,10.67
2018-07-14T21:56:46.995Z,10.20
2018-07-14T21:59:15.637Z,9.57
2018-07-14T22:01:51.014Z,10.23
2018-07-14T22:04:20.701Z,10.40
2018-07-14T22:06:49.555Z,10.37
2018-07-14T22:09:18.202Z,10.90
2018-07-14T22:11:46.873Z,11.00
2018-07-14T22:14:15.529Z,13.60
2018-07-14T22:16:44.235Z,11.10
2018-07-14T22:19:12.845Z,11.23
2018-07-14T22:21:41.469Z,12.90
2018-07-14T22:24:10.115Z,11.57
2018-07-14T22:26:38.768Z,11.40
2018-07-14T22:29:07.390Z,11.17
2018-07-14T22:31:36.017Z,10.90
2018-07-14T22:34:04.618Z,10.67
2018-07-14T22:36:33.269Z,10.53
2018-07-14T22:39:01.861Z,10.50
2018-07-14T22:41:30.553Z,11.70
2018-07-14T22:43:59.179Z,11.73
2018-07-14T22:46:27.822Z,11.73
2018-07-14T22:48:56.441Z,11.73
2018-07-14T22:51:25.227Z,11.13
2018-07-14T22:53:53.845Z,11.73
2018-07-14T22:56:22.488Z,13.33
2018-07-14T22:58:51.129Z,11.63
2018-07-14T23:01:19.746Z,11.67
2018-07-14T23:03:48.346Z,13.33
2018-07-14T23:06:16.975Z,10.90
2018-07-14T23:08:45.571Z,17.60
2018-07-14T23:11:14.304Z,12.57
2018-07-14T23:13:42.952Z,11.20
2018-07-14T23:16:11.657Z,12.17
2018-07-14T23:18:40.267Z,12.13
2018-07-14T23:21:08.991Z,14.73
2018-07-14T23:23:37.629Z,12.60
2018-07-14T23:26:06.387Z,12.20
2018-07-14T23:28:35.047Z,11.90
2018-07-14T23:31:03.690Z,12.40
2018-07-14T23:33:32.344Z,12.00
2018-07-14T23:36:01.010Z,12.17
2018-07-14T23:38:29.774Z,12.60
2018-07-14T23:40:58.528Z,11.93
2018-07-14T23:43:27.170Z,12.80
2018-07-14T23:45:55.806Z,12.93
2018-07-14T23:48:24.463Z,11.77
2018-07-14T23:50:53.123Z,13.37
2018-07-14T23:53:21.787Z,12.70
2018-07-14T23:55:50.428Z,12.87
2018-07-14T23:58:19.109Z,14.47
